4XHLK LLHA-LLHA
Flight info
| Callsign | 4XHLK |
|---|---|
| Flight time | 0h 4m |
| Altitude | 1000 |
| Route | CVFR |
| Aircraft | VL3/L-S/L |
Departure
| Time | 2026-04-29 18:49 |
|---|---|
| Airport | Uri Michaeli Haifa International Airport (LLHA) |
Arrival
| Time | 2026-04-29 18:53 |
|---|---|
| Airport | Uri Michaeli Haifa International Airport (LLHA) |
| Time | Latitude | Longitude | Altitude | Speed | Heading |
|---|---|---|---|---|---|
| 2026-04-29 18:40 | 32.81234 | 35.04187 | 20 ft | 0 kts | 250° |
| 2026-04-29 18:46 | 32.81210 | 35.04185 | 20 ft | 16 kts | 161° |
| 2026-04-29 18:46 | 32.81160 | 35.04240 | 21 ft | 0 kts | 62° |
| 2026-04-29 18:47 | 32.81162 | 35.04276 | 21 ft | 23 kts | 90° |
| 2026-04-29 18:47 | 32.80999 | 35.04381 | 22 ft | 39 kts | 152° |
| 2026-04-29 18:47 | 32.80698 | 35.04506 | 20 ft | 41 kts | 169° |
| 2026-04-29 18:48 | 32.80605 | 35.04568 | 19 ft | 1 kts | 282° |
| 2026-04-29 18:48 | 32.80631 | 35.04545 | 20 ft | 1 kts | 344° |
| 2026-04-29 18:48 | 32.80894 | 35.04430 | 71 ft | 68 kts | 340° |
| 2026-04-29 18:48 | 32.81412 | 35.04244 | 313 ft | 81 kts | 341° |
| 2026-04-29 18:49 | 32.81969 | 35.04011 | 508 ft | 89 kts | 338° |
| 2026-04-29 18:49 | 32.82539 | 35.04103 | 750 ft | 98 kts | 57° |
| 2026-04-29 18:49 | 32.82871 | 35.04899 | 750 ft | 117 kts | 78° |
| 2026-04-29 18:49 | 32.82458 | 35.05593 | 887 ft | 99 kts | 146° |
| 2026-04-29 18:50 | 32.81891 | 35.06030 | 963 ft | 101 kts | 146° |
| 2026-04-29 18:50 | 32.81249 | 35.06528 | 1032 ft | 118 kts | 147° |
| 2026-04-29 18:50 | 32.80511 | 35.07021 | 1041 ft | 124 kts | 154° |
| 2026-04-29 18:50 | 32.79693 | 35.07416 | 958 ft | 129 kts | 167° |
| 2026-04-29 18:51 | 32.78962 | 35.07223 | 853 ft | 105 kts | 213° |
| 2026-04-29 18:51 | 32.78402 | 35.06742 | 889 ft | 99 kts | 230° |
| 2026-04-29 18:51 | 32.78180 | 35.06054 | 962 ft | 91 kts | 275° |
| 2026-04-29 18:51 | 32.78504 | 35.05453 | 726 ft | 97 kts | 333° |
| 2026-04-29 18:52 | 32.78976 | 35.05243 | 559 ft | 74 kts | 345° |
| 2026-04-29 18:52 | 32.79440 | 35.05059 | 368 ft | 67 kts | 338° |
| 2026-04-29 18:52 | 32.79722 | 35.04934 | 314 ft | 66 kts | 338° |
| 2026-04-29 18:53 | 32.81033 | 35.04366 | 70 ft | 45 kts | 335° |